createdAt,value
2022-11-29T00:01:51.283Z,4.30
2022-11-29T00:04:18.383Z,3.95
2022-11-29T00:06:45.445Z,4.30
2022-11-29T00:09:13.738Z,4.47
2022-11-29T00:12:11.128Z,3.97
2022-11-29T00:14:38.241Z,4.70
2022-11-29T00:17:05.919Z,4.43
2022-11-29T00:19:34.582Z,4.10
2022-11-29T00:22:02.309Z,4.60
2022-11-29T00:24:31.605Z,4.38
2022-11-29T00:26:58.755Z,4.30
2022-11-29T00:29:25.945Z,4.43
2022-11-29T00:31:53.212Z,4.20
2022-11-29T00:34:20.355Z,4.40
2022-11-29T00:36:47.441Z,4.07
2022-11-29T00:39:16.252Z,3.65
2022-11-29T00:41:43.409Z,4.20
2022-11-29T00:44:15.274Z,4.22
2022-11-29T00:49:12.665Z,4.18
2022-11-29T00:51:39.777Z,3.97
2022-11-29T00:54:06.940Z,3.72
2022-11-29T00:56:34.005Z,3.88
2022-11-29T00:59:01.073Z,4.05
2022-11-29T01:01:28.321Z,3.92
2022-11-29T01:03:55.446Z,3.97
2022-11-29T01:06:22.722Z,3.90
2022-11-29T01:08:50.680Z,3.72
2022-11-29T01:11:19.514Z,3.78
2022-11-29T01:13:46.635Z,4.15
2022-11-29T01:16:14.560Z,4.00
2022-11-29T01:18:42.108Z,3.92
2022-11-29T01:21:12.047Z,3.72
2022-11-29T01:23:39.501Z,4.05
2022-11-29T01:26:08.863Z,4.10
2022-11-29T01:28:37.600Z,3.92
2022-11-29T01:31:08.353Z,3.95
2022-11-29T01:33:36.105Z,3.78
2022-11-29T01:36:03.244Z,3.67
2022-11-29T01:38:30.558Z,3.50
2022-11-29T01:40:58.872Z,3.38
2022-11-29T01:43:26.216Z,3.42
2022-11-29T01:45:53.457Z,3.55
2022-11-29T01:48:23.451Z,3.92
2022-11-29T01:50:50.816Z,3.67
2022-11-29T01:53:18.018Z,3.70
2022-11-29T01:55:48.316Z,3.50
2022-11-29T01:58:15.895Z,3.53
2022-11-29T02:00:43.009Z,3.38
2022-11-29T02:03:14.774Z,3.08
2022-11-29T02:05:43.801Z,3.85
2022-11-29T02:10:56.489Z,3.83
2022-11-29T02:13:33.494Z,3.22
2022-11-29T02:16:20.877Z,3.45
2022-11-29T02:21:33.704Z,3.60
2022-11-29T02:24:00.778Z,3.25
2022-11-29T02:26:46.437Z,3.70
2022-11-29T02:29:16.190Z,3.25
2022-11-29T02:31:52.490Z,3.35
2022-11-29T02:34:38.129Z,3.25
2022-11-29T02:37:14.929Z,3.60
2022-11-29T02:40:17.525Z,3.30
2022-11-29T02:43:02.985Z,2.97
2022-11-29T02:45:42.126Z,3.85
2022-11-29T02:48:09.192Z,3.22
2022-11-29T02:50:45.658Z,3.45
2022-11-29T02:53:36.125Z,3.22
2022-11-29T02:56:16.964Z,3.50
2022-11-29T02:58:52.192Z,3.30
2022-11-29T03:03:53.964Z,3.25
2022-11-29T03:06:23.622Z,3.35
2022-11-29T03:08:54.929Z,3.00
2022-11-29T03:11:28.905Z,3.05
2022-11-29T03:14:08.431Z,3.00
2022-11-29T03:16:41.303Z,3.47
2022-11-29T03:19:21.709Z,3.50
2022-11-29T03:22:07.693Z,3.38
2022-11-29T03:24:39.424Z,3.28
2022-11-29T03:27:13.973Z,3.40
2022-11-29T03:29:48.754Z,3.90
2022-11-29T03:32:15.811Z,2.78
2022-11-29T03:35:00.973Z,3.17
2022-11-29T03:37:37.006Z,3.05
2022-11-29T03:40:06.410Z,2.78
2022-11-29T03:42:36.080Z,3.20
2022-11-29T03:45:05.905Z,3.00
2022-11-29T03:47:36.687Z,2.97
2022-11-29T03:50:06.985Z,2.97
2022-11-29T03:52:34.058Z,3.03
2022-11-29T03:55:09.986Z,2.75
2022-11-29T03:57:51.447Z,3.13
2022-11-29T04:00:19.193Z,2.88
2022-11-29T04:03:18.469Z,3.17
2022-11-29T04:05:54.919Z,2.97
2022-11-29T04:08:40.302Z,2.72
2022-11-29T04:11:19.221Z,2.83
2022-11-29T04:14:04.784Z,2.72
2022-11-29T04:16:31.913Z,2.78
2022-11-29T04:19:23.542Z,2.80
2022-11-29T04:21:59.105Z,2.90
2022-11-29T04:24:48.225Z,2.92
2022-11-29T04:27:23.737Z,2.45
2022-11-29T04:30:09.133Z,2.55
2022-11-29T04:32:44.450Z,2.40
2022-11-29T04:35:30.867Z,2.85
2022-11-29T04:37:57.905Z,2.55
2022-11-29T04:40:24.993Z,2.80
2022-11-29T04:42:54.846Z,2.78
2022-11-29T04:45:21.897Z,2.47
2022-11-29T04:48:00.132Z,2.80
2022-11-29T04:50:45.821Z,3.45
2022-11-29T04:53:15.937Z,2.67
2022-11-29T04:55:57.607Z,2.60
2022-11-29T04:58:34.736Z,2.70
2022-11-29T05:01:01.789Z,2.85
2022-11-29T05:03:31.876Z,2.78
2022-11-29T05:06:17.617Z,3.05
2022-11-29T05:08:47.437Z,2.58
2022-11-29T05:11:14.582Z,2.40
2022-11-29T05:13:44.676Z,2.50
2022-11-29T05:16:20.592Z,2.70
2022-11-29T05:18:59.620Z,2.40
2022-11-29T05:21:43.019Z,2.92
2022-11-29T05:24:19.419Z,2.70
2022-11-29T05:27:04.999Z,2.70
2022-11-29T05:29:32.080Z,2.90
2022-11-29T05:32:17.809Z,2.60
2022-11-29T05:34:48.123Z,2.58
2022-11-29T05:37:24.329Z,2.67
2022-11-29T05:40:10.012Z,2.67
2022-11-29T05:42:46.011Z,2.72
2022-11-29T05:45:39.498Z,2.55
2022-11-29T05:48:12.508Z,2.58
2022-11-29T05:50:48.606Z,2.30
2022-11-29T05:53:24.304Z,2.67
2022-11-29T05:55:51.361Z,3.13
2022-11-29T05:58:41.856Z,2.50
2022-11-29T06:01:21.088Z,2.60
2022-11-29T06:03:57.416Z,2.53
2022-11-29T06:06:42.860Z,2.28
2022-11-29T06:09:30.790Z,2.25
2022-11-29T06:12:02.650Z,2.92
2022-11-29T06:14:55.468Z,2.53
2022-11-29T06:17:28.593Z,2.30
2022-11-29T06:20:04.421Z,2.47
2022-11-29T06:22:31.590Z,2.42
2022-11-29T06:25:10.969Z,2.15
2022-11-29T06:27:48.280Z,2.35
2022-11-29T06:30:16.578Z,2.47
2022-11-29T06:32:48.943Z,2.60
2022-11-29T06:35:16.095Z,2.20
2022-11-29T06:37:45.806Z,2.90
2022-11-29T06:40:15.841Z,2.30
2022-11-29T06:42:43.247Z,2.13
2022-11-29T06:45:13.967Z,2.30
2022-11-29T06:47:50.195Z,2.47
2022-11-29T06:50:30.728Z,2.13
2022-11-29T06:53:07.226Z,2.50
2022-11-29T06:55:40.504Z,2.50
2022-11-29T06:58:07.569Z,2.22
2022-11-29T07:00:46.862Z,2.22
2022-11-29T07:03:35.367Z,2.10
2022-11-29T07:06:09.035Z,2.35
2022-11-29T07:08:36.345Z,2.40
2022-11-29T07:11:03.699Z,2.13
2022-11-29T07:13:30.901Z,2.05
2022-11-29T07:16:06.900Z,2.33
2022-11-29T07:18:36.930Z,1.98
2022-11-29T07:21:04.065Z,2.20
2022-11-29T07:23:36.311Z,1.92
2022-11-29T07:26:09.657Z,2.40
2022-11-29T07:29:03.461Z,2.42
2022-11-29T07:31:39.827Z,2.10
2022-11-29T07:34:13.022Z,2.25
2022-11-29T07:36:52.919Z,2.10
2022-11-29T07:39:34.694Z,2.20
2022-11-29T07:42:04.421Z,1.88
2022-11-29T07:44:50.098Z,2.42
2022-11-29T07:47:17.554Z,2.10
2022-11-29T07:49:44.601Z,2.20
2022-11-29T07:52:15.659Z,2.15
2022-11-29T07:54:43.405Z,2.58
2022-11-29T07:57:10.730Z,2.33
2022-11-29T07:59:37.903Z,2.30
2022-11-29T08:02:11.325Z,2.55
2022-11-29T08:04:44.417Z,2.58
2022-11-29T08:07:11.829Z,2.40
2022-11-29T08:09:38.976Z,2.50
2022-11-29T08:12:07.733Z,2.30
2022-11-29T08:14:34.833Z,2.20
2022-11-29T08:17:01.941Z,2.35
2022-11-29T08:19:29.065Z,2.47
2022-11-29T08:21:56.141Z,2.30
2022-11-29T08:24:23.358Z,2.92
2022-11-29T08:26:50.573Z,2.90
2022-11-29T08:29:17.798Z,2.72
2022-11-29T08:31:45.410Z,2.67
2022-11-29T08:34:13.028Z,2.80
2022-11-29T08:36:40.123Z,2.40
2022-11-29T08:39:09.473Z,2.15
2022-11-29T08:41:37.093Z,2.35
2022-11-29T08:44:05.506Z,2.47
2022-11-29T08:46:51.185Z,2.70
2022-11-29T08:49:18.621Z,2.90
2022-11-29T08:51:45.675Z,2.40
2022-11-29T08:54:12.807Z,2.08
2022-11-29T08:59:27.060Z,2.33
2022-11-29T09:01:54.174Z,2.38
2022-11-29T09:04:21.355Z,2.60
2022-11-29T09:06:51.389Z,2.42
2022-11-29T09:09:18.547Z,2.75
2022-11-29T09:11:49.261Z,3.30
2022-11-29T09:14:17.107Z,2.85
2022-11-29T09:16:44.291Z,2.97
2022-11-29T09:19:11.493Z,2.42
2022-11-29T09:21:38.581Z,2.60
2022-11-29T09:24:06.608Z,2.65
2022-11-29T09:26:35.448Z,2.72
2022-11-29T09:29:03.516Z,2.70
2022-11-29T09:31:31.141Z,2.60
2022-11-29T09:33:58.731Z,2.78
2022-11-29T09:36:28.977Z,2.72
2022-11-29T09:38:57.090Z,2.47
2022-11-29T09:41:42.974Z,3.58
2022-11-29T09:44:31.403Z,2.88
2022-11-29T09:47:13.493Z,2.83
2022-11-29T09:49:58.859Z,2.38
2022-11-29T09:52:25.981Z,2.92
2022-11-29T09:55:05.310Z,2.70
2022-11-29T09:57:33.191Z,2.55
2022-11-29T10:00:04.996Z,2.75
2022-11-29T10:02:36.765Z,2.70
2022-11-29T10:05:09.658Z,3.20
2022-11-29T10:07:40.129Z,2.80
2022-11-29T10:10:10.181Z,2.83
2022-11-29T10:12:44.639Z,2.42
2022-11-29T10:15:31.987Z,2.72
2022-11-29T10:18:02.277Z,2.65
2022-11-29T10:20:39.730Z,2.92
2022-11-29T10:23:23.922Z,2.38
2022-11-29T10:25:52.782Z,2.88
2022-11-29T10:28:21.529Z,2.50
2022-11-29T10:30:49.570Z,2.58
2022-11-29T10:33:19.062Z,2.75
2022-11-29T10:35:46.764Z,2.40
2022-11-29T10:38:30.343Z,2.45
2022-11-29T10:40:59.834Z,2.70
2022-11-29T10:43:26.949Z,2.65
2022-11-29T10:45:56.040Z,2.40
2022-11-29T10:48:24.646Z,2.40
2022-11-29T10:50:52.782Z,2.75
2022-11-29T10:53:21.948Z,2.58
2022-11-29T10:55:49.009Z,2.67
2022-11-29T10:58:22.072Z,3.03
2022-11-29T11:00:53.433Z,2.75
2022-11-29T11:03:35.832Z,2.85
2022-11-29T11:06:16.521Z,2.53
2022-11-29T11:08:53.966Z,2.83
2022-11-29T11:11:39.476Z,2.45
2022-11-29T11:14:17.658Z,3.30
2022-11-29T11:16:44.823Z,2.50
2022-11-29T11:19:27.777Z,2.80
2022-11-29T11:21:55.968Z,2.85
2022-11-29T11:24:28.125Z,2.75
2022-11-29T11:26:55.405Z,2.50
2022-11-29T11:29:25.251Z,2.45
2022-11-29T11:32:01.453Z,2.33
2022-11-29T11:34:28.561Z,2.53
2022-11-29T11:37:13.859Z,2.97
2022-11-29T11:39:41.309Z,2.70
2022-11-29T11:42:35.268Z,2.53
2022-11-29T11:45:03.416Z,2.22
2022-11-29T11:47:31.888Z,2.78
2022-11-29T11:50:04.869Z,3.25
2022-11-29T11:52:39.774Z,2.35
2022-11-29T11:55:23.339Z,2.92
2022-11-29T11:58:10.274Z,2.88
2022-11-29T12:03:40.178Z,2.60
2022-11-29T12:06:27.963Z,3.17
2022-11-29T12:09:10.136Z,2.85
2022-11-29T12:11:44.309Z,2.90
2022-11-29T12:14:16.646Z,3.00
2022-11-29T12:16:45.154Z,2.58
2022-11-29T12:19:18.445Z,2.65
2022-11-29T12:21:47.282Z,3.05
2022-11-29T12:24:22.543Z,3.22
2022-11-29T12:26:56.833Z,3.20
2022-11-29T12:29:27.394Z,2.97
2022-11-29T12:31:55.201Z,2.90
2022-11-29T12:34:54.594Z,2.92
2022-11-29T12:37:24.448Z,3.10
2022-11-29T12:40:02.159Z,2.85
2022-11-29T12:42:32.310Z,3.47
2022-11-29T12:45:18.268Z,2.92
2022-11-29T12:48:05.064Z,3.05
2022-11-29T12:50:36.456Z,3.28
2022-11-29T12:53:27.056Z,3.67
2022-11-29T12:55:57.523Z,3.00
2022-11-29T12:58:30.440Z,2.70
2022-11-29T13:01:13.342Z,2.80
2022-11-29T13:03:49.611Z,2.88
2022-11-29T13:06:32.434Z,3.20
2022-11-29T13:08:59.461Z,2.92
2022-11-29T13:11:40.304Z,3.10
2022-11-29T13:14:34.820Z,3.30
2022-11-29T13:16:56.230Z,3.05
2022-11-29T13:19:43.712Z,3.05
2022-11-29T13:24:46.689Z,2.83
2022-11-29T13:27:17.035Z,3.00
2022-11-29T13:29:44.321Z,3.25
2022-11-29T13:32:18.526Z,3.10
2022-11-29T13:34:48.108Z,2.63
2022-11-29T13:37:27.202Z,2.72
2022-11-29T13:40:00.463Z,2.65
2022-11-29T13:42:30.678Z,3.10
2022-11-29T13:45:22.376Z,3.15
2022-11-29T13:47:53.006Z,3.20
2022-11-29T13:50:37.353Z,2.80
2022-11-29T13:53:06.971Z,2.80
2022-11-29T13:55:34.276Z,2.83
2022-11-29T13:58:19.665Z,3.35
2022-11-29T14:00:46.794Z,2.92
2022-11-29T14:03:21.750Z,3.13
2022-11-29T14:05:50.235Z,2.80
2022-11-29T14:08:26.538Z,2.67
2022-11-29T14:10:58.053Z,2.83
2022-11-29T14:13:28.571Z,2.80
2022-11-29T14:15:57.331Z,3.28
2022-11-29T14:18:42.541Z,2.88
2022-11-29T14:21:09.827Z,2.97
2022-11-29T14:23:41.857Z,2.83
2022-11-29T14:26:08.951Z,3.30
2022-11-29T14:28:39.657Z,3.25
2022-11-29T14:31:10.274Z,2.67
2022-11-29T14:33:37.429Z,3.30
2022-11-29T14:36:19.666Z,3.00
2022-11-29T14:39:05.678Z,2.95
2022-11-29T14:41:47.976Z,3.25
2022-11-29T14:44:35.464Z,3.13
2022-11-29T14:49:31.035Z,3.08
2022-11-29T14:52:11.835Z,3.42
2022-11-29T14:54:54.591Z,2.78
2022-11-29T14:57:41.374Z,2.85
2022-11-29T15:00:12.542Z,2.70
2022-11-29T15:02:41.738Z,3.03
2022-11-29T15:05:20.141Z,3.35
2022-11-29T15:08:16.737Z,2.92
2022-11-29T15:10:45.617Z,3.92
2022-11-29T15:13:14.419Z,2.83
2022-11-29T15:15:56.867Z,3.17
2022-11-29T15:18:29.948Z,2.97
2022-11-29T15:21:00.019Z,2.83
2022-11-29T15:23:27.167Z,3.33
2022-11-29T15:25:55.374Z,2.88
2022-11-29T15:28:24.123Z,4.07
2022-11-29T15:31:01.047Z,3.40
2022-11-29T15:33:28.610Z,3.00
2022-11-29T15:35:57.204Z,3.03
2022-11-29T15:38:24.741Z,3.13
2022-11-29T15:40:53.112Z,3.25
2022-11-29T15:43:22.884Z,2.90
2022-11-29T15:45:56.869Z,3.00
2022-11-29T15:48:31.646Z,3.50
2022-11-29T15:51:16.877Z,3.05
2022-11-29T15:54:00.348Z,3.50
2022-11-29T15:56:46.358Z,3.28
2022-11-29T15:59:26.901Z,2.65
2022-11-29T16:01:55.041Z,3.30
2022-11-29T16:04:22.853Z,3.17
2022-11-29T16:06:50.324Z,3.00
2022-11-29T16:09:18.859Z,3.25
2022-11-29T16:11:47.438Z,3.13
2022-11-29T16:14:16.911Z,3.22
2022-11-29T16:16:45.994Z,2.42
2022-11-29T16:19:21.450Z,3.33
2022-11-29T16:21:59.366Z,3.45
2022-11-29T16:24:26.937Z,3.55
2022-11-29T16:26:54.272Z,2.95
2022-11-29T16:29:24.476Z,3.13
2022-11-29T16:31:52.084Z,3.10
2022-11-29T16:34:25.074Z,3.65
2022-11-29T16:37:01.545Z,3.25
2022-11-29T16:39:28.929Z,3.10
2022-11-29T16:42:14.832Z,3.25
2022-11-29T16:44:42.590Z,3.08
2022-11-29T16:47:16.607Z,3.28
2022-11-29T16:49:43.787Z,3.10
2022-11-29T16:52:27.508Z,4.00
2022-11-29T16:54:54.594Z,3.20
2022-11-29T16:57:22.086Z,3.75
2022-11-29T16:59:49.430Z,3.28
2022-11-29T17:02:17.036Z,3.47
2022-11-29T17:04:44.874Z,3.28
2022-11-29T17:07:17.684Z,3.05
2022-11-29T17:09:48.331Z,3.60
2022-11-29T17:12:15.554Z,3.38
2022-11-29T17:14:42.852Z,3.55
2022-11-29T17:17:13.346Z,3.65
2022-11-29T17:19:40.473Z,3.78
2022-11-29T17:22:07.609Z,3.83
2022-11-29T17:24:34.752Z,3.35
2022-11-29T17:27:01.837Z,3.08
2022-11-29T17:29:29.003Z,3.17
2022-11-29T17:31:56.337Z,3.05
2022-11-29T17:34:23.537Z,3.92
2022-11-29T17:36:54.041Z,3.83
2022-11-29T17:39:22.625Z,3.97
2022-11-29T17:41:49.855Z,3.47
2022-11-29T17:44:17.109Z,3.60
2022-11-29T17:46:44.215Z,3.53
2022-11-29T17:49:15.177Z,5.55
2022-11-29T17:51:57.706Z,3.97
2022-11-29T17:54:27.224Z,3.92
2022-11-29T17:56:56.041Z,3.60
2022-11-29T17:59:23.282Z,4.32
2022-11-29T18:01:55.038Z,3.92
2022-11-29T18:04:22.322Z,3.83
2022-11-29T18:06:50.404Z,3.58
2022-11-29T18:09:18.850Z,3.65
2022-11-29T18:11:49.389Z,3.15
2022-11-29T18:14:21.751Z,3.88
2022-11-29T18:16:48.952Z,3.58
2022-11-29T18:19:17.777Z,4.18
2022-11-29T18:21:45.284Z,4.25
2022-11-29T18:24:12.619Z,4.00
2022-11-29T18:26:39.966Z,4.40
2022-11-29T18:29:07.753Z,4.13
2022-11-29T18:31:36.731Z,4.32
2022-11-29T18:36:34.866Z,3.95
2022-11-29T18:39:03.354Z,4.10
2022-11-29T18:41:30.942Z,4.40
2022-11-29T18:44:02.418Z,4.10
2022-11-29T18:46:32.385Z,4.45
2022-11-29T18:49:01.032Z,4.72
2022-11-29T18:51:29.531Z,6.53
2022-11-29T18:53:57.303Z,3.88
2022-11-29T18:56:25.441Z,4.35
2022-11-29T18:58:58.240Z,4.35
2022-11-29T19:01:27.649Z,3.97
2022-11-29T19:06:23.383Z,3.70
2022-11-29T19:08:50.631Z,4.40
2022-11-29T19:11:21.583Z,4.32
2022-11-29T19:13:48.922Z,3.95
2022-11-29T19:16:17.728Z,3.88
2022-11-29T19:18:50.570Z,4.07
2022-11-29T19:21:18.205Z,4.03
2022-11-29T19:23:45.828Z,3.60
2022-11-29T19:26:14.136Z,3.65
2022-11-29T19:28:42.362Z,4.00
2022-11-29T19:31:09.876Z,3.70
2022-11-29T19:33:37.817Z,3.38
2022-11-29T19:36:14.900Z,3.95
2022-11-29T19:38:43.331Z,3.63
2022-11-29T19:41:10.502Z,3.60
2022-11-29T19:43:37.918Z,3.55
2022-11-29T19:46:11.793Z,4.05
2022-11-29T19:48:38.920Z,4.65
2022-11-29T19:51:06.679Z,4.10
2022-11-29T19:53:34.314Z,3.85
2022-11-29T19:56:12.871Z,4.03
2022-11-29T19:58:39.936Z,4.88
2022-11-29T20:01:07.042Z,3.97
2022-11-29T20:03:34.283Z,4.18
2022-11-29T20:06:01.581Z,3.88
2022-11-29T20:08:29.335Z,4.68
2022-11-29T20:10:56.546Z,4.57
2022-11-29T20:13:23.623Z,4.45
2022-11-29T20:15:50.842Z,4.20
2022-11-29T20:18:17.949Z,3.92
2022-11-29T20:20:47.318Z,3.95
2022-11-29T20:23:14.444Z,3.58
2022-11-29T20:25:41.542Z,3.03
2022-11-29T20:28:09.906Z,4.75
2022-11-29T20:30:37.017Z,3.80
2022-11-29T20:33:04.282Z,3.55
2022-11-29T20:35:31.464Z,3.60
2022-11-29T20:38:07.448Z,3.50
2022-11-29T20:40:53.420Z,3.72
2022-11-29T20:43:24.813Z,4.15
2022-11-29T20:45:52.154Z,3.88
2022-11-29T20:48:25.721Z,3.92
2022-11-29T20:50:57.684Z,3.97
2022-11-29T20:53:30.937Z,3.30
2022-11-29T20:55:58.162Z,3.50
2022-11-29T20:58:26.443Z,3.78
2022-11-29T21:00:54.584Z,3.90
2022-11-29T21:03:22.543Z,2.85
2022-11-29T21:05:49.917Z,3.20
2022-11-29T21:08:17.842Z,3.03
2022-11-29T21:10:45.587Z,3.58
2022-11-29T21:13:13.581Z,3.47
2022-11-29T21:15:41.340Z,3.08
2022-11-29T21:18:08.778Z,3.53
2022-11-29T21:20:35.948Z,3.50
2022-11-29T21:23:19.633Z,3.47
2022-11-29T21:25:53.501Z,3.42
2022-11-29T21:28:23.005Z,3.67
2022-11-29T21:30:50.287Z,3.45
2022-11-29T21:33:17.477Z,3.72
2022-11-29T21:35:44.614Z,3.83
2022-11-29T21:38:14.178Z,3.40
2022-11-29T21:40:41.345Z,3.60
2022-11-29T21:43:08.468Z,4.00
2022-11-29T21:45:35.722Z,3.72
2022-11-29T21:48:02.847Z,3.50
2022-11-29T21:50:29.967Z,3.60
2022-11-29T21:52:57.056Z,4.05
2022-11-29T21:55:31.591Z,3.50
2022-11-29T22:00:26.385Z,3.30
2022-11-29T22:02:53.579Z,4.38
2022-11-29T22:05:20.826Z,3.50
2022-11-29T22:07:48.020Z,3.55
2022-11-29T22:10:15.154Z,3.55
2022-11-29T22:12:51.248Z,3.55
2022-11-29T22:15:24.577Z,3.88
2022-11-29T22:17:52.229Z,3.42
2022-11-29T22:20:19.335Z,3.95
2022-11-29T22:22:48.472Z,3.67
2022-11-29T22:25:15.885Z,3.47
2022-11-29T22:27:43.014Z,3.47
2022-11-29T22:30:10.305Z,3.20
2022-11-29T22:32:37.475Z,3.45
2022-11-29T22:35:04.660Z,3.25
2022-11-29T22:37:31.759Z,3.50
2022-11-29T22:39:58.860Z,3.33
2022-11-29T22:42:25.972Z,3.70
2022-11-29T22:44:53.085Z,3.60
2022-11-29T22:47:20.209Z,3.78
2022-11-29T22:49:49.178Z,3.35
2022-11-29T22:54:43.355Z,4.00
2022-11-29T22:57:10.409Z,4.00
2022-11-29T22:59:37.535Z,3.38
2022-11-29T23:02:04.706Z,3.20
2022-11-29T23:04:31.841Z,3.30
2022-11-29T23:06:59.092Z,3.45
2022-11-29T23:09:26.240Z,3.70
2022-11-29T23:11:55.684Z,3.53
2022-11-29T23:14:23.395Z,2.92
2022-11-29T23:16:50.700Z,3.67
2022-11-29T23:19:17.889Z,3.53
2022-11-29T23:21:46.158Z,3.22
2022-11-29T23:24:14.016Z,3.92
2022-11-29T23:26:43.584Z,3.08
2022-11-29T23:29:12.353Z,3.42
2022-11-29T23:31:39.852Z,3.35
2022-11-29T23:34:07.146Z,3.50
2022-11-29T23:36:34.292Z,3.63
2022-11-29T23:39:01.645Z,3.67
2022-11-29T23:41:28.827Z,3.47
2022-11-29T23:43:55.890Z,3.35
2022-11-29T23:46:24.217Z,3.47
2022-11-29T23:48:51.385Z,3.65
2022-11-29T23:51:19.346Z,3.63
2022-11-29T23:53:46.876Z,3.25
2022-11-29T23:56:16.089Z,3.55
2022-11-29T23:58:43.869Z,3.40
